Time;durP1;ratioP1;P1;durP2;ratioP2;P2;SDS_P1;SDS_P2;PMS_P1;PMS_P2;Temp;Humidity;BMP_temperature;BMP_pressure;BME280_temperature;BME280_humidity;BME280_pressure;Samples;Min_cycle;Max_cycle;Signal;HPM_P1;HPM_P2
2023/12/24 00:02:10;;;;;;;6.38;0.82;;;10.10;99.90;;;;;;6281702;22;20019;-81
2023/12/24 00:04:41;;;;;;;11.55;1.63;;;10.10;99.90;;;;;;6281493;22;20063;-83
2023/12/24 00:07:08;;;;;;;5.40;0.90;;;10.10;99.90;;;;;;6254208;22;20468;-83
2023/12/24 00:09:35;;;;;;;6.35;0.98;;;10.10;99.90;;;;;;6225912;22;20024;-83
2023/12/24 00:12:03;;;;;;;5.50;0.82;;;10.10;99.90;;;;;;6250913;22;20445;-82
2023/12/24 00:14:30;;;;;;;4.40;0.90;;;10.20;99.90;;;;;;6295721;22;20019;-82
2023/12/24 00:16:57;;;;;;;4.00;0.77;;;10.20;99.90;;;;;;6281236;22;20019;-76
2023/12/24 00:19:24;;;;;;;5.65;0.50;;;10.20;99.90;;;;;;6254999;22;20027;-81
2023/12/24 00:21:51;;;;;;;7.03;1.42;;;10.20;99.90;;;;;;6250854;22;20118;-83
2023/12/24 00:24:18;;;;;;;5.20;0.65;;;10.20;99.90;;;;;;6276785;22;20023;-81
2023/12/24 00:26:45;;;;;;;3.20;0.77;;;10.20;99.90;;;;;;6281085;22;20038;-76
2023/12/24 00:29:12;;;;;;;4.75;0.85;;;10.20;99.90;;;;;;6253062;22;20030;-76
2023/12/24 00:31:40;;;;;;;5.65;0.90;;;10.20;99.90;;;;;;6225882;22;20354;-76
2023/12/24 00:34:07;;;;;;;7.97;0.82;;;10.30;99.90;;;;;;6281804;22;20011;-76
2023/12/24 00:36:34;;;;;;;6.70;0.73;;;10.30;99.90;;;;;;6251525;22;20020;-76
2023/12/24 00:39:01;;;;;;;3.97;1.13;;;10.30;99.90;;;;;;6250061;22;20026;-76
2023/12/24 00:41:30;;;;;;;6.93;0.98;;;10.30;99.90;;;;;;6306419;22;20019;-76
2023/12/24 00:43:57;;;;;;;5.40;1.08;;;10.30;99.90;;;;;;6250511;22;20030;-76
2023/12/24 00:46:24;;;;;;;7.00;1.00;;;10.30;99.90;;;;;;6254823;22;20472;-76
2023/12/24 00:48:52;;;;;;;7.57;1.13;;;10.30;99.90;;;;;;6225485;22;20110;-76
2023/12/24 00:51:19;;;;;;;4.03;0.95;;;10.40;99.90;;;;;;6253606;22;20031;-76
2023/12/24 00:53:46;;;;;;;4.40;1.00;;;10.40;99.90;;;;;;6250112;22;20019;-76
2023/12/24 00:56:13;;;;;;;2.42;0.88;;;10.40;99.90;;;;;;6277607;22;20023;-75
2023/12/24 00:58:40;;;;;;;2.83;0.80;;;10.40;99.90;;;;;;6250319;22;20023;-75
2023/12/24 01:01:07;;;;;;;6.28;0.70;;;10.40;99.90;;;;;;6251007;22;20020;-75
2023/12/24 01:03:34;;;;;;;4.57;0.90;;;10.40;99.90;;;;;;6225445;22;20019;-75
2023/12/24 01:06:02;;;;;;;4.78;1.00;;;10.40;99.90;;;;;;6302180;22;20015;-76
2023/12/24 01:08:29;;;;;;;2.38;0.70;;;10.40;99.90;;;;;;6306501;22;20011;-75
2023/12/24 01:10:56;;;;;;;6.10;0.80;;;10.40;99.90;;;;;;6308032;22;20039;-75
2023/12/24 01:13:23;;;;;;;5.75;0.80;;;10.40;99.90;;;;;;6306527;22;20449;-75
2023/12/24 01:15:50;;;;;;;5.00;0.57;;;10.40;99.90;;;;;;6280479;22;20015;-75
2023/12/24 01:18:17;;;;;;;3.20;0.60;;;10.40;99.90;;;;;;6255585;22;20472;-75
2023/12/24 01:20:45;;;;;;;4.30;0.80;;;10.40;99.90;;;;;;6306666;22;20026;-77
2023/12/24 01:23:12;;;;;;;2.03;0.55;;;10.40;99.80;;;;;;6280941;22;20342;-76
2023/12/24 01:25:39;;;;;;;3.35;0.73;;;10.40;99.80;;;;;;6255759;22;20019;-76
2023/12/24 01:28:06;;;;;;;2.55;0.80;;;10.40;99.80;;;;;;6255464;22;20189;-77
2023/12/24 01:30:33;;;;;;;3.92;0.85;;;10.40;99.70;;;;;;6280805;22;20023;-75
2023/12/24 01:33:00;;;;;;;5.72;1.30;;;10.40;99.60;;;;;;6306248;22;20023;-75
2023/12/24 01:35:27;;;;;;;3.47;0.70;;;10.40;99.70;;;;;;6255197;22;20019;-75
2023/12/24 01:37:54;;;;;;;4.43;0.77;;;10.30;99.90;;;;;;6306225;22;20015;-75
2023/12/24 01:40:21;;;;;;;3.53;0.80;;;10.20;99.90;;;;;;6306073;22;20113;-75
2023/12/24 01:42:48;;;;;;;6.50;1.10;;;10.10;99.90;;;;;;6229871;22;20092;-76
2023/12/24 01:45:16;;;;;;;3.28;0.90;;;10.00;99.90;;;;;;6256202;22;20102;-75
2023/12/24 01:47:43;;;;;;;3.42;1.55;;;9.90;99.90;;;;;;6280604;22;20024;-75
2023/12/24 01:50:19;;;;;;;9.32;1.95;;;9.80;99.90;;;;;;6306506;22;20091;-77
2023/12/24 01:52:46;;;;;;;4.88;1.65;;;9.70;99.90;;;;;;6281047;22;20023;-77
2023/12/24 01:55:13;;;;;;;4.05;1.52;;;9.70;99.90;;;;;;6230153;22;20019;-77
2023/12/24 01:57:40;;;;;;;3.10;1.38;;;9.60;99.90;;;;;;6306216;22;20126;-76
2023/12/24 02:00:08;;;;;;;4.40;1.42;;;9.60;99.90;;;;;;6280746;22;20015;-76
2023/12/24 02:02:35;;;;;;;5.38;1.88;;;9.50;99.90;;;;;;6305971;22;20035;-76
2023/12/24 02:05:02;;;;;;;4.38;1.40;;;9.50;99.90;;;;;;6281397;22;20076;-77
2023/12/24 02:07:34;;;;;;;4.05;1.77;;;9.40;99.90;;;;;;6242589;22;20069;-79
2023/12/24 02:10:02;;;;;;;4.55;1.75;;;9.40;99.90;;;;;;6280507;22;20107;-79
2023/12/24 02:12:31;;;;;;;4.50;1.95;;;9.30;99.90;;;;;;6306061;22;20100;-81
2023/12/24 02:14:58;;;;;;;7.97;2.55;;;9.30;99.90;;;;;;6229915;22;20020;-81
2023/12/24 02:17:25;;;;;;;6.63;2.72;;;9.30;99.90;;;;;;6259209;22;20026;-80
2023/12/24 02:19:53;;;;;;;4.90;1.83;;;9.30;99.90;;;;;;6311506;22;20018;-81
2023/12/24 02:22:20;;;;;;;4.60;1.52;;;9.30;99.90;;;;;;6286500;22;20507;-83
2023/12/24 02:24:47;;;;;;;5.80;2.42;;;9.30;99.90;;;;;;6285697;22;20027;-76
2023/12/24 02:27:26;;;;;;;5.90;2.03;;;9.30;99.90;;;;;;6311065;22;20050;-78
2023/12/24 02:29:58;;;;;;;9.60;3.38;;;9.30;99.90;;;;;;6311132;22;20072;-81
2023/12/24 02:32:27;;;;;;;6.60;3.08;;;9.20;99.90;;;;;;6285281;22;20079;-82
2023/12/24 02:34:59;;;;;;;7.65;2.80;;;9.20;99.90;;;;;;6260163;22;20026;-82
2023/12/24 02:37:26;;;;;;;6.05;2.50;;;9.20;99.90;;;;;;6260557;22;20123;-81
2023/12/24 02:39:53;;;;;;;8.00;3.17;;;9.20;99.90;;;;;;6260189;22;20027;-81
2023/12/24 02:42:20;;;;;;;8.07;3.00;;;9.20;99.90;;;;;;6285306;22;20049;-80
2023/12/24 02:44:47;;;;;;;7.40;3.42;;;9.30;99.90;;;;;;6235409;22;20022;-79
2023/12/24 02:47:14;;;;;;;7.75;3.75;;;9.30;99.90;;;;;;6285670;22;20466;-79
2023/12/24 02:49:41;;;;;;;6.88;3.42;;;9.30;99.90;;;;;;6310927;22;20402;-79
2023/12/24 02:52:08;;;;;;;6.18;3.22;;;9.30;99.90;;;;;;6285743;22;20113;-79
2023/12/24 02:54:35;;;;;;;8.02;3.45;;;9.30;99.90;;;;;;6259856;22;20019;-81
2023/12/24 02:57:03;;;;;;;8.15;3.95;;;9.30;99.90;;;;;;6285786;22;20085;-80
2023/12/24 02:59:30;;;;;;;7.80;3.10;;;9.30;99.90;;;;;;6234991;22;20444;-80
2023/12/24 03:01:57;;;;;;;6.25;3.28;;;9.30;99.90;;;;;;6279929;22;20098;-80
2023/12/24 03:04:24;;;;;;;7.00;3.70;;;9.40;99.90;;;;;;6258578;22;20064;-79
2023/12/24 03:06:51;;;;;;;8.13;3.33;;;9.40;99.90;;;;;;6254351;22;20449;-80
2023/12/24 03:09:18;;;;;;;7.28;3.47;;;9.40;99.90;;;;;;6305814;22;20106;-80
2023/12/24 03:11:45;;;;;;;12.63;4.20;;;9.40;99.90;;;;;;6280350;22;20019;-80
2023/12/24 03:14:12;;;;;;;12.85;4.90;;;9.40;99.90;;;;;;6279910;22;20019;-80
2023/12/24 03:16:39;;;;;;;9.05;4.35;;;9.40;99.90;;;;;;6280324;22;20125;-83
2023/12/24 03:19:06;;;;;;;11.23;4.78;;;9.40;99.90;;;;;;6305514;22;20345;-81
2023/12/24 03:21:34;;;;;;;9.70;4.20;;;9.40;99.90;;;;;;6230045;22;20019;-82
2023/12/24 03:24:01;;;;;;;10.25;4.13;;;9.40;99.90;;;;;;6280077;22;20011;-80
2023/12/24 03:26:29;;;;;;;10.48;4.43;;;9.50;99.90;;;;;;6229648;22;20041;-80
2023/12/24 03:28:56;;;;;;;14.35;4.53;;;9.50;99.90;;;;;;6230178;22;20019;-80
2023/12/24 03:31:26;;;;;;;9.13;3.75;;;9.50;99.90;;;;;;6229849;22;20042;-77
2023/12/24 03:33:53;;;;;;;10.43;4.10;;;9.50;99.90;;;;;;6280526;22;20345;-78
2023/12/24 03:36:20;;;;;;;8.07;3.65;;;9.60;99.90;;;;;;6280019;22;20019;-77
2023/12/24 03:38:47;;;;;;;8.85;3.22;;;9.60;99.90;;;;;;6229425;22;20023;-78
2023/12/24 03:41:15;;;;;;;6.45;2.50;;;9.60;99.90;;;;;;6229910;22;20019;-78
2023/12/24 03:43:43;;;;;;;6.47;3.15;;;9.60;99.90;;;;;;6305471;22;20026;-78
2023/12/24 03:46:10;;;;;;;9.07;3.13;;;9.60;99.90;;;;;;6279876;22;20027;-77
2023/12/24 03:48:37;;;;;;;6.88;2.80;;;9.60;99.90;;;;;;6280124;22;20392;-77
2023/12/24 03:51:05;;;;;;;6.57;3.05;;;9.60;99.90;;;;;;6279855;22;20080;-77
2023/12/24 03:53:32;;;;;;;6.03;2.80;;;9.60;99.90;;;;;;6279871;22;20046;-77
2023/12/24 03:55:59;;;;;;;6.88;3.42;;;9.70;99.90;;;;;;6254687;22;20050;-77
2023/12/24 03:58:26;;;;;;;5.40;2.70;;;9.70;99.90;;;;;;6254444;22;20019;-77
2023/12/24 04:00:53;;;;;;;5.50;2.08;;;9.70;99.90;;;;;;6229426;22;20328;-78
2023/12/24 04:03:20;;;;;;;4.82;2.58;;;9.70;99.90;;;;;;6254359;22;20026;-80
2023/12/24 04:05:47;;;;;;;5.00;2.33;;;9.70;99.90;;;;;;6254427;22;20018;-80
2023/12/24 04:08:15;;;;;;;4.20;2.08;;;9.80;99.90;;;;;;6231387;22;20019;-81
2023/12/24 04:10:43;;;;;;;3.78;1.67;;;9.80;99.90;;;;;;6310385;22;20026;-80
2023/12/24 04:13:13;;;;;;;3.88;1.60;;;9.80;99.90;;;;;;6285496;22;20049;-78
2023/12/24 04:15:41;;;;;;;3.92;1.60;;;9.80;99.90;;;;;;6284952;22;20344;-80
2023/12/24 04:18:08;;;;;;;3.70;1.10;;;9.80;99.90;;;;;;6259715;22;20015;-80
2023/12/24 04:20:36;;;;;;;5.53;1.33;;;9.80;99.90;;;;;;6312157;22;20488;-80
2023/12/24 04:23:05;;;;;;;2.05;0.88;;;9.80;99.90;;;;;;6286831;22;20398;-79
2023/12/24 04:25:32;;;;;;;2.60;0.93;;;9.80;99.90;;;;;;6286794;22;20061;-78
2023/12/24 04:28:00;;;;;;;1.75;0.80;;;9.80;99.90;;;;;;6261240;22;20441;-79
2023/12/24 04:30:27;;;;;;;3.10;0.70;;;9.80;99.90;;;;;;6261050;22;20071;-79
2023/12/24 04:32:55;;;;;;;2.20;0.80;;;9.90;99.90;;;;;;6261585;22;20023;-79
2023/12/24 04:35:22;;;;;;;2.03;0.68;;;9.80;99.90;;;;;;6312061;22;20046;-80
2023/12/24 04:37:51;;;;;;;2.30;0.75;;;9.90;99.90;;;;;;6286633;22;20022;-80
2023/12/24 04:40:18;;;;;;;1.58;0.70;;;9.90;99.90;;;;;;6286426;22;20025;-80
2023/12/24 04:42:45;;;;;;;2.15;0.65;;;9.90;99.90;;;;;;6235945;22;20394;-79
2023/12/24 04:45:12;;;;;;;2.20;0.80;;;9.90;99.90;;;;;;6286785;22;20046;-79
2023/12/24 04:47:40;;;;;;;2.15;0.70;;;9.90;99.90;;;;;;6286548;22;20356;-83
2023/12/24 04:50:07;;;;;;;2.92;0.82;;;9.90;99.90;;;;;;6261052;22;20106;-80
2023/12/24 04:52:38;;;;;;;1.85;0.90;;;10.00;99.90;;;;;;6286258;22;20018;-79
2023/12/24 04:55:07;;;;;;;2.22;0.85;;;10.00;99.90;;;;;;6262702;22;20395;-79
2023/12/24 04:57:34;;;;;;;1.80;0.80;;;10.00;99.90;;;;;;6286116;22;20445;-79
2023/12/24 05:00:01;;;;;;;2.20;0.90;;;10.00;99.90;;;;;;6311960;22;20026;-80
2023/12/24 05:02:28;;;;;;;1.88;0.70;;;10.00;99.90;;;;;;6286481;22;20464;-79
2023/12/24 05:04:55;;;;;;;2.42;1.00;;;10.00;99.90;;;;;;6261166;22;20064;-78
2023/12/24 05:07:22;;;;;;;1.60;0.75;;;10.10;99.90;;;;;;6286330;22;20042;-80
2023/12/24 05:09:51;;;;;;;1.88;0.75;;;10.00;99.90;;;;;;6261377;22;20448;-80
2023/12/24 05:12:18;;;;;;;2.83;0.90;;;10.00;99.90;;;;;;6235786;22;20049;-79
2023/12/24 05:14:45;;;;;;;1.55;0.70;;;10.10;99.90;;;;;;6260912;22;20023;-79
2023/12/24 05:17:12;;;;;;;1.60;0.65;;;10.10;99.90;;;;;;6260857;22;20014;-79
2023/12/24 05:19:39;;;;;;;1.55;0.70;;;10.10;99.90;;;;;;6286355;22;20022;-79
2023/12/24 05:22:06;;;;;;;1.90;0.80;;;10.10;99.90;;;;;;6286065;22;20019;-79
2023/12/24 05:24:33;;;;;;;1.55;0.63;;;10.10;99.90;;;;;;6286144;22;20356;-80
2023/12/24 05:27:00;;;;;;;1.88;0.80;;;10.20;99.90;;;;;;6286557;22;20383;-80
2023/12/24 05:29:27;;;;;;;2.70;0.70;;;10.20;99.90;;;;;;6260600;22;20026;-79
2023/12/24 05:31:56;;;;;;;3.30;0.90;;;10.20;99.90;;;;;;6285995;22;20022;-79
2023/12/24 05:34:23;;;;;;;2.58;0.90;;;10.20;99.90;;;;;;6286588;22;20501;-78
2023/12/24 05:36:50;;;;;;;1.85;0.73;;;10.20;99.90;;;;;;6286025;22;20056;-78
2023/12/24 05:39:17;;;;;;;1.00;0.47;;;10.30;99.90;;;;;;6311687;22;20018;-78
2023/12/24 05:41:45;;;;;;;2.10;0.75;;;10.30;99.90;;;;;;6286141;22;20056;-79
2023/12/24 05:44:12;;;;;;;2.22;0.60;;;10.30;99.90;;;;;;6286086;22;20026;-79
2023/12/24 05:46:39;;;;;;;1.55;0.80;;;10.30;99.90;;;;;;6311451;22;20430;-78
2023/12/24 05:49:06;;;;;;;2.15;0.90;;;10.30;99.90;;;;;;6286816;22;20019;-79
2023/12/24 05:51:33;;;;;;;3.20;1.08;;;10.30;99.90;;;;;;6339055;22;20068;-78
2023/12/24 05:54:00;;;;;;;2.10;0.70;;;10.40;99.90;;;;;;6285975;22;20060;-78
2023/12/24 05:56:27;;;;;;;2.67;0.90;;;10.40;99.90;;;;;;6235471;22;20025;-79
2023/12/24 05:58:54;;;;;;;5.53;0.73;;;10.40;99.90;;;;;;6260494;22;20025;-78
2023/12/24 06:01:21;;;;;;;1.77;0.60;;;10.40;99.90;;;;;;6311433;22;20025;-78
2023/12/24 06:03:48;;;;;;;2.20;0.82;;;10.50;99.90;;;;;;6260916;22;20042;-78
2023/12/24 06:06:15;;;;;;;1.70;0.60;;;10.50;99.90;;;;;;6306106;22;20081;-79
2023/12/24 06:08:42;;;;;;;3.25;0.90;;;10.50;99.90;;;;;;6230437;22;20026;-79
2023/12/24 06:11:19;;;;;;;0.90;0.50;;;10.50;99.90;;;;;;6255347;22;20030;-79
2023/12/24 06:13:46;;;;;;;2.55;0.40;;;10.60;99.90;;;;;;6253831;22;20050;-79
2023/12/24 06:16:13;;;;;;;3.50;1.08;;;10.50;99.90;;;;;;6229937;22;20015;-79
2023/12/24 06:18:40;;;;;;;2.28;0.63;;;10.60;99.90;;;;;;6230188;22;20023;-79
2023/12/24 06:21:09;;;;;;;3.20;0.80;;;10.60;99.90;;;;;;6281002;22;20041;-79
2023/12/24 06:23:36;;;;;;;2.60;0.70;;;10.60;99.90;;;;;;6255318;22;20411;-79
2023/12/24 06:26:04;;;;;;;2.75;0.70;;;10.60;99.90;;;;;;6230180;22;20023;-79
2023/12/24 06:28:31;;;;;;;2.85;0.93;;;10.60;99.90;;;;;;6306143;22;20376;-79
2023/12/24 06:30:59;;;;;;;2.63;0.60;;;10.60;99.90;;;;;;6255016;22;20077;-78
2023/12/24 06:33:26;;;;;;;2.22;0.80;;;10.70;99.90;;;;;;6280404;22;20416;-78
2023/12/24 06:35:54;;;;;;;1.75;0.98;;;10.70;99.90;;;;;;6305824;22;20019;-78
2023/12/24 06:38:21;;;;;;;2.05;0.55;;;10.70;99.90;;;;;;6254928;22;20353;-79
2023/12/24 06:40:48;;;;;;;2.53;0.55;;;10.70;99.90;;;;;;6305719;22;20023;-79
2023/12/24 06:43:15;;;;;;;5.35;0.80;;;10.70;99.90;;;;;;6307355;22;20015;-78
2023/12/24 06:45:43;;;;;;;2.13;0.60;;;10.70;99.90;;;;;;6255017;22;20023;-78
2023/12/24 06:48:10;;;;;;;4.18;0.50;;;10.70;99.90;;;;;;6280347;22;20026;-78
2023/12/24 06:50:37;;;;;;;3.33;0.52;;;10.70;99.90;;;;;;6280086;22;20105;-78
2023/12/24 06:53:05;;;;;;;1.33;0.60;;;10.70;99.90;;;;;;6306036;22;20449;-77
2023/12/24 06:55:32;;;;;;;6.10;1.08;;;10.80;99.90;;;;;;6256214;22;20030;-78
2023/12/24 06:58:02;;;;;;;1.70;0.50;;;10.80;99.90;;;;;;6254979;22;20019;-78
2023/12/24 07:00:30;;;;;;;3.80;0.70;;;10.80;99.90;;;;;;6280878;22;20023;-77
2023/12/24 07:02:57;;;;;;;3.22;0.63;;;10.70;99.90;;;;;;6280204;22;20437;-79
2023/12/24 07:05:24;;;;;;;1.73;0.63;;;10.80;99.90;;;;;;6278470;22;20358;-80
2023/12/24 07:07:51;;;;;;;2.35;0.70;;;10.80;99.90;;;;;;6274596;22;20348;-80
2023/12/24 07:10:19;;;;;;;4.25;0.93;;;10.80;99.90;;;;;;6224872;22;20049;-80
2023/12/24 07:12:46;;;;;;;2.22;0.60;;;10.80;99.90;;;;;;6254671;22;20027;-79
2023/12/24 07:15:13;;;;;;;3.45;0.90;;;10.80;99.90;;;;;;6254464;22;20030;-78
2023/12/24 07:17:40;;;;;;;3.08;0.70;;;10.80;99.90;;;;;;6249133;22;20102;-78
2023/12/24 07:20:08;;;;;;;5.97;1.02;;;10.80;99.90;;;;;;6250067;22;20020;-78
2023/12/24 07:22:35;;;;;;;3.92;0.75;;;10.80;99.90;;;;;;6254446;22;20019;-79
2023/12/24 07:25:02;;;;;;;2.53;0.50;;;10.80;99.90;;;;;;6306069;22;20015;-78
2023/12/24 07:27:29;;;;;;;3.28;0.70;;;10.80;99.90;;;;;;6279921;22;20011;-78
2023/12/24 07:29:56;;;;;;;2.63;0.70;;;10.80;99.90;;;;;;6249247;22;20073;-78
2023/12/24 07:32:23;;;;;;;6.10;1.33;;;10.90;99.90;;;;;;6304274;22;20054;-76
2023/12/24 07:34:50;;;;;;;2.13;0.65;;;10.80;99.90;;;;;;6254386;22;20019;-76
2023/12/24 07:37:20;;;;;;;6.57;1.23;;;10.90;99.90;;;;;;6251926;22;20019;-76
2023/12/24 07:39:49;;;;;;;2.83;0.70;;;10.90;99.90;;;;;;6274565;22;20022;-77
2023/12/24 07:42:16;;;;;;;3.17;1.08;;;10.90;99.90;;;;;;6223712;22;20069;-76
2023/12/24 07:44:44;;;;;;;5.35;1.20;;;10.90;99.90;;;;;;6249271;22;20521;-76
2023/12/24 07:47:11;;;;;;;5.30;1.05;;;10.90;99.90;;;;;;6272170;22;20051;-75
2023/12/24 07:49:38;;;;;;;4.30;1.00;;;10.90;99.90;;;;;;6279971;22;20024;-75
2023/12/24 07:52:05;;;;;;;5.95;1.10;;;10.90;99.90;;;;;;6279740;22;20023;-75
2023/12/24 07:54:32;;;;;;;3.95;1.10;;;10.90;99.90;;;;;;6281946;22;20019;-75
2023/12/24 07:57:02;;;;;;;5.70;1.05;;;10.90;99.90;;;;;;6227169;22;20450;-75
2023/12/24 07:59:29;;;;;;;8.98;1.30;;;10.90;99.90;;;;;;6256260;22;20023;-75
2023/12/24 08:01:56;;;;;;;5.57;1.70;;;10.90;99.90;;;;;;6256382;22;20457;-74
2023/12/24 08:04:23;;;;;;;5.70;1.77;;;10.90;99.90;;;;;;6281866;22;20016;-75
2023/12/24 08:06:51;;;;;;;5.75;1.48;;;10.90;99.90;;;;;;6281583;22;20092;-75
2023/12/24 08:09:22;;;;;;;5.72;1.35;;;10.90;99.90;;;;;;6338659;22;20075;-76
2023/12/24 08:11:49;;;;;;;5.90;1.10;;;10.90;99.90;;;;;;6261564;22;20030;-75
2023/12/24 08:14:16;;;;;;;3.53;1.10;;;11.00;99.90;;;;;;6312216;22;20029;-75
2023/12/24 08:16:43;;;;;;;5.63;1.27;;;11.00;99.90;;;;;;6312662;22;20046;-75
2023/12/24 08:19:10;;;;;;;6.32;1.50;;;11.00;99.90;;;;;;6287171;22;20019;-79
2023/12/24 08:21:37;;;;;;;6.85;1.50;;;11.00;99.90;;;;;;6286833;22;20437;-79
2023/12/24 08:24:04;;;;;;;7.05;1.63;;;11.00;99.90;;;;;;6312387;22;20015;-79
2023/12/24 08:26:31;;;;;;;7.35;1.73;;;11.00;99.90;;;;;;6312290;22;20356;-81
2023/12/24 08:28:58;;;;;;;4.07;1.48;;;11.00;99.90;;;;;;6286555;22;20390;-81
2023/12/24 08:31:25;;;;;;;5.15;1.60;;;11.00;99.90;;;;;;6261605;22;20030;-77
2023/12/24 08:33:52;;;;;;;5.43;1.88;;;11.00;99.90;;;;;;6286888;22;20065;-77
2023/12/24 08:36:19;;;;;;;3.53;1.30;;;11.10;99.90;;;;;;6286633;22;20049;-77
2023/12/24 08:38:47;;;;;;;5.22;1.48;;;11.10;99.90;;;;;;6312638;22;20015;-77
2023/12/24 08:41:13;;;;;;;2.92;1.17;;;11.10;99.90;;;;;;6286640;22;20019;-77
2023/12/24 08:43:40;;;;;;;4.30;1.80;;;11.10;99.90;;;;;;6286549;22;20050;-77
2023/12/24 08:46:07;;;;;;;5.13;1.13;;;11.10;99.90;;;;;;6286315;22;20448;-78
2023/12/24 08:48:35;;;;;;;2.45;1.35;;;11.10;99.90;;;;;;6287204;22;20021;-77
2023/12/24 08:51:03;;;;;;;3.72;1.48;;;11.10;99.90;;;;;;6287148;22;20341;-77
2023/12/24 08:53:30;;;;;;;3.80;1.35;;;11.10;99.90;;;;;;6339660;22;20025;-79
2023/12/24 08:55:57;;;;;;;3.92;1.50;;;11.20;99.90;;;;;;6311845;22;20736;-76
2023/12/24 08:58:24;;;;;;;2.75;0.90;;;11.20;99.90;;;;;;6286271;22;20019;-77
2023/12/24 09:00:51;;;;;;;2.65;0.80;;;11.10;99.90;;;;;;6312179;22;20053;-79
2023/12/24 09:03:18;;;;;;;1.65;0.80;;;11.20;99.90;;;;;;6311997;22;20044;-80
2023/12/24 09:05:45;;;;;;;1.73;0.50;;;11.20;99.90;;;;;;6255479;22;20018;-79
2023/12/24 09:08:13;;;;;;;2.85;0.95;;;11.20;99.90;;;;;;6306746;22;20092;-80
2023/12/24 09:10:41;;;;;;;3.03;0.60;;;11.20;99.90;;;;;;6281350;22;20102;-78
2023/12/24 09:13:08;;;;;;;1.90;0.70;;;11.20;99.90;;;;;;6281579;22;20319;-78
2023/12/24 09:15:35;;;;;;;2.63;0.65;;;11.20;99.90;;;;;;6255690;22;20050;-79
2023/12/24 09:18:02;;;;;;;1.73;0.52;;;11.20;99.90;;;;;;6306876;22;20022;-77
2023/12/24 09:20:29;;;;;;;2.13;0.63;;;11.20;99.90;;;;;;6255860;22;20041;-77
2023/12/24 09:22:56;;;;;;;1.13;0.60;;;11.30;99.90;;;;;;6306825;22;20022;-77
2023/12/24 09:25:23;;;;;;;1.08;0.50;;;11.20;99.90;;;;;;6306593;22;20384;-77
2023/12/24 09:27:50;;;;;;;1.25;0.68;;;11.30;99.90;;;;;;6255984;22;20080;-78
2023/12/24 09:30:17;;;;;;;3.08;0.73;;;11.30;99.90;;;;;;6230696;22;20019;-84
2023/12/24 09:32:44;;;;;;;2.97;0.70;;;11.30;99.90;;;;;;6281099;22;20023;-78
2023/12/24 09:35:11;;;;;;;3.38;0.90;;;11.30;99.90;;;;;;6306379;22;20023;-78
2023/12/24 09:37:38;;;;;;;3.63;0.90;;;11.30;99.90;;;;;;6306379;22;20020;-79
2023/12/24 09:40:07;;;;;;;1.90;0.77;;;11.30;99.90;;;;;;6280875;22;20015;-79
2023/12/24 09:42:35;;;;;;;1.92;0.80;;;11.30;99.90;;;;;;6306636;22;20035;-77
2023/12/24 09:45:02;;;;;;;2.15;0.68;;;11.40;99.90;;;;;;6280664;22;20038;-78
2023/12/24 09:47:29;;;;;;;3.38;0.60;;;11.40;99.90;;;;;;6280956;22;20430;-78
2023/12/24 09:50:00;;;;;;;6.75;0.90;;;11.40;99.90;;;;;;6280796;22;20091;-79
2023/12/24 09:52:28;;;;;;;3.53;0.90;;;11.40;99.90;;;;;;6281503;22;20023;-77
2023/12/24 09:54:55;;;;;;;3.65;1.42;;;11.40;99.90;;;;;;6306246;22;20019;-79
2023/12/24 09:57:23;;;;;;;4.97;1.38;;;11.40;99.90;;;;;;6255424;22;20597;-87
2023/12/24 09:59:51;;;;;;;4.50;1.05;;;11.40;99.90;;;;;;6281428;22;20081;-78
2023/12/24 10:02:18;;;;;;;6.05;1.42;;;11.40;99.90;;;;;;6280776;22;20019;-77
2023/12/24 10:04:45;;;;;;;7.60;1.77;;;11.50;99.90;;;;;;6306222;22;20019;-78
2023/12/24 10:07:12;;;;;;;7.10;1.42;;;11.50;99.90;;;;;;6282459;22;20023;-80
2023/12/24 10:09:49;;;;;;;9.07;1.80;;;11.40;99.90;;;;;;6307695;22;20015;-81
2023/12/24 10:12:17;;;;;;;7.93;2.45;;;11.50;99.90;;;;;;6255247;22;20050;-81
2023/12/24 10:14:55;;;;;;;9.32;2.60;;;11.50;99.90;;;;;;6280375;22;20023;-78
2023/12/24 10:17:29;;;;;;;12.40;3.72;;;11.50;99.90;;;;;;6254733;22;20042;-78
2023/12/24 10:20:00;;;;;;;9.20;3.53;;;11.60;99.90;;;;;;6255362;22;20019;-79
2023/12/24 10:22:27;;;;;;;15.45;3.75;;;11.60;99.90;;;;;;6255684;22;20105;-89
2023/12/24 10:25:06;;;;;;;14.38;3.58;;;11.60;99.90;;;;;;6281282;22;20118;-89
2023/12/24 10:27:40;;;;;;;16.95;3.55;;;11.60;99.90;;;;;;6256325;22;20122;-93
2023/12/24 10:30:32;;;;;;;20.27;4.28;;;11.60;99.90;;;;;;6242587;22;20015;-88
2023/12/24 10:33:09;;;;;;;23.33;5.15;;;11.60;99.90;;;;;;6256314;22;20098;-93
2023/12/24 10:35:49;;;;;;;22.67;5.75;;;11.60;99.90;;;;;;6257419;22;20015;-93
2023/12/24 10:38:18;;;;;;;26.02;7.60;;;11.60;99.90;;;;;;6256266;22;20019;-89
2023/12/24 10:40:45;;;;;;;24.08;6.93;;;11.70;99.90;;;;;;6231184;22;20038;-94
2023/12/24 10:43:15;;;;;;;30.55;6.75;;;11.70;99.90;;;;;;6256327;22;20452;-87
2023/12/24 10:45:45;;;;;;;21.40;4.55;;;11.70;99.90;;;;;;6256534;22;20026;-88
2023/12/24 10:48:14;;;;;;;28.60;5.47;;;11.70;99.90;;;;;;6232239;22;20023;-89
2023/12/24 10:50:43;;;;;;;17.15;5.30;;;11.70;99.90;;;;;;6230687;22;20061;-83
2023/12/24 10:53:11;;;;;;;20.40;5.05;;;11.80;99.90;;;;;;6281319;22;20027;-90
2023/12/24 10:55:40;;;;;;;22.00;4.90;;;11.80;99.90;;;;;;6281344;22;20096;-84
2023/12/24 10:58:46;;;;;;;24.35;5.30;;;11.80;99.90;;;;;;6281427;22;20011;-86
2023/12/24 11:01:15;;;;;;;19.00;3.95;;;11.90;99.90;;;;;;6280842;22;20026;-85
2023/12/24 11:03:49;;;;;;;20.88;3.92;;;11.90;99.90;;;;;;6256656;22;20011;-94
2023/12/24 11:06:56;;;;;;;;;;;11.90;99.90;;;;;;6271905;22;20029;-95
2023/12/24 11:18:06;;;;;;;19.52;5.25;;;11.90;99.90;;;;;;6105112;23;20025;-93
2023/12/24 11:20:41;;;;;;;21.42;5.07;;;11.80;99.90;;;;;;6125007;23;20021;-93
2023/12/24 11:23:10;;;;;;;23.50;5.63;;;11.90;99.90;;;;;;6135786;22;20020;-85
2023/12/24 11:25:44;;;;;;;20.50;5.25;;;11.90;99.90;;;;;;6285969;22;20026;-83
2023/12/24 11:28:25;;;;;;;15.77;4.82;;;11.90;99.90;;;;;;6286874;22;20076;-84
2023/12/24 11:30:52;;;;;;;14.18;4.75;;;11.90;99.90;;;;;;6313712;22;20025;-93
2023/12/24 11:33:28;;;;;;;19.30;4.60;;;11.90;99.90;;;;;;6314377;22;20015;-91
2023/12/24 11:36:00;;;;;;;16.38;3.90;;;11.90;99.90;;;;;;6288673;22;20015;-93
2023/12/24 11:38:33;;;;;;;11.60;4.03;;;11.90;99.90;;;;;;6288188;22;20015;-92
2023/12/24 11:41:05;;;;;;;13.73;3.80;;;12.00;99.90;;;;;;6288715;22;20049;-91
2023/12/24 11:43:32;;;;;;;15.80;4.80;;;11.90;99.90;;;;;;6313764;22;20102;-92
2023/12/24 11:45:59;;;;;;;12.18;4.53;;;11.90;99.90;;;;;;6288178;22;20019;-81
2023/12/24 11:48:33;;;;;;;10.75;4.68;;;11.90;99.90;;;;;;6262923;22;20076;-92
2023/12/24 11:51:10;;;;;;;12.93;5.40;;;12.00;99.90;;;;;;6313676;22;20030;-90
2023/12/24 11:53:39;;;;;;;11.98;4.80;;;12.00;99.90;;;;;;6288052;22;20022;-87
2023/12/24 11:56:13;;;;;;;12.25;5.50;;;12.00;99.90;;;;;;6288030;22;20023;-91
2023/12/24 11:58:55;;;;;;;10.88;5.70;;;12.00;99.90;;;;;;6313974;22;20018;-88
2023/12/24 12:01:26;;;;;;;12.75;6.05;;;12.00;99.90;;;;;;6313322;22;20094;-85
2023/12/24 12:03:59;;;;;;;13.18;5.90;;;12.00;99.90;;;;;;6287671;22;20023;-86
2023/12/24 12:06:30;;;;;;;11.38;5.88;;;12.00;99.90;;;;;;6307767;22;20092;-93
2023/12/24 12:09:01;;;;;;;16.67;6.15;;;12.10;99.90;;;;;;6282365;22;20495;-83
2023/12/24 12:11:28;;;;;;;7.95;5.03;;;12.00;99.90;;;;;;6281975;22;20025;-82
2023/12/24 12:13:55;;;;;;;9.52;5.82;;;12.00;99.90;;;;;;6231315;22;20441;-81
2023/12/24 12:16:22;;;;;;;7.80;5.13;;;12.10;99.90;;;;;;6256423;22;20019;-80
2023/12/24 12:18:49;;;;;;;9.48;5.50;;;12.10;99.90;;;;;;6281837;22;20069;-80
2023/12/24 12:21:16;;;;;;;10.23;5.00;;;12.10;99.90;;;;;;6231238;22;20020;-81
2023/12/24 12:23:43;;;;;;;10.35;4.90;;;12.10;99.90;;;;;;6282060;22;20015;-79
2023/12/24 12:26:10;;;;;;;7.10;4.10;;;12.10;99.90;;;;;;6281886;22;20019;-79
2023/12/24 12:28:38;;;;;;;8.90;3.90;;;12.10;99.90;;;;;;6281991;22;20115;-81
2023/12/24 12:31:05;;;;;;;9.32;3.92;;;12.10;99.90;;;;;;6281500;22;20022;-81
2023/12/24 12:33:32;;;;;;;8.30;3.47;;;12.10;99.90;;;;;;6307434;22;20030;-81
2023/12/24 12:36:02;;;;;;;5.40;2.70;;;12.20;99.90;;;;;;6231022;22;20023;-79
2023/12/24 12:38:29;;;;;;;7.95;3.53;;;12.20;99.90;;;;;;6257480;22;20012;-79
2023/12/24 12:40:56;;;;;;;4.75;2.83;;;12.20;99.90;;;;;;6255677;22;20043;-81
2023/12/24 12:43:23;;;;;;;7.25;3.50;;;12.20;99.90;;;;;;6256224;22;20023;-83
2023/12/24 12:45:50;;;;;;;7.10;3.47;;;12.20;99.90;;;;;;6231100;22;20345;-81
2023/12/24 12:48:19;;;;;;;6.32;2.83;;;12.20;99.90;;;;;;6256527;22;20465;-82
2023/12/24 12:50:47;;;;;;;8.32;4.10;;;12.20;99.90;;;;;;6281698;22;20072;-81
2023/12/24 12:53:25;;;;;;;8.88;3.50;;;12.20;99.90;;;;;;6256492;22;20023;-83
2023/12/24 12:56:07;;;;;;;9.27;3.83;;;12.20;99.90;;;;;;6256611;22;20019;-80
2023/12/24 12:58:34;;;;;;;7.28;3.38;;;12.20;99.90;;;;;;6281453;22;20026;-81
2023/12/24 13:01:01;;;;;;;7.22;3.17;;;12.20;99.90;;;;;;6281748;22;20023;-82
2023/12/24 13:03:29;;;;;;;8.18;2.88;;;12.20;99.90;;;;;;6231496;22;20458;-81